createdAt,value
2022-09-04T00:00:19.445Z,12.70
2022-09-04T00:02:52.124Z,12.65
2022-09-04T00:05:08.914Z,12.67
2022-09-04T00:07:34.509Z,12.66
2022-09-04T00:10:09.790Z,12.68
2022-09-04T00:12:11.968Z,12.65
2022-09-04T00:14:21.398Z,12.65
2022-09-04T00:17:02.136Z,12.63
2022-09-04T00:19:35.994Z,12.59
2022-09-04T00:21:48.921Z,12.55
2022-09-04T00:23:52.268Z,12.58
2022-09-04T00:26:28.152Z,12.58
2022-09-04T00:28:45.354Z,12.57
2022-09-04T00:30:59.004Z,12.56
2022-09-04T00:33:24.869Z,12.55
2022-09-04T00:35:37.982Z,12.52
2022-09-04T00:38:36.706Z,12.49
2022-09-04T00:40:57.157Z,12.51
2022-09-04T00:43:29.550Z,12.46
2022-09-04T00:46:24.629Z,12.41
2022-09-04T00:49:03.187Z,12.41
2022-09-04T00:51:44.166Z,12.40
2022-09-04T00:54:01.181Z,12.36
2022-09-04T00:56:43.426Z,12.34
2022-09-04T00:59:03.620Z,12.37
2022-09-04T01:01:05.858Z,12.37
2022-09-04T01:03:07.856Z,12.34
2022-09-04T01:05:56.633Z,12.37
2022-09-04T01:08:35.188Z,12.35
2022-09-04T01:11:04.667Z,12.30
2022-09-04T01:13:34.026Z,12.23
2022-09-04T01:16:30.757Z,12.15
2022-09-04T01:18:44.092Z,12.13
2022-09-04T01:21:06.537Z,12.11
2022-09-04T01:23:56.499Z,12.11
2022-09-04T01:26:47.984Z,12.10
2022-09-04T01:29:10.698Z,12.07
2022-09-04T01:31:40.975Z,12.04
2022-09-04T01:34:34.329Z,12.01
2022-09-04T01:37:04.001Z,11.96
2022-09-04T01:39:06.039Z,12.00
2022-09-04T01:41:46.975Z,11.99
2022-09-04T01:43:49.040Z,12.01
2022-09-04T01:46:23.625Z,11.95
2022-09-04T01:48:53.232Z,11.93
2022-09-04T01:50:55.438Z,11.93
2022-09-04T01:53:27.550Z,11.89
2022-09-04T01:55:50.582Z,11.82
2022-09-04T01:57:58.331Z,11.75
2022-09-04T02:00:12.037Z,11.73
2022-09-04T02:02:52.056Z,11.72
2022-09-04T02:05:08.474Z,11.71
2022-09-04T02:07:19.688Z,11.73
2022-09-04T02:09:44.409Z,11.60
2022-09-04T02:11:51.402Z,11.57
2022-09-04T02:14:19.996Z,11.54
2022-09-04T02:16:57.062Z,11.50
2022-09-04T02:19:01.826Z,11.50
2022-09-04T02:21:15.559Z,11.55
2022-09-04T02:23:44.413Z,11.50
2022-09-04T02:25:57.163Z,11.49
2022-09-04T02:28:23.285Z,11.47
2022-09-04T02:30:25.325Z,11.49
2022-09-04T02:32:41.857Z,11.50
2022-09-04T02:35:02.220Z,11.44
2022-09-04T02:37:28.390Z,11.42
2022-09-04T02:39:41.591Z,11.42
2022-09-04T02:42:10.854Z,11.42
2022-09-04T02:44:58.606Z,11.43
2022-09-04T02:47:57.944Z,11.41
2022-09-04T02:50:17.228Z,11.34
2022-09-04T02:53:08.178Z,11.28
2022-09-04T02:55:30.931Z,11.27
2022-09-04T02:58:16.836Z,11.22
2022-09-04T03:00:25.567Z,11.20
2022-09-04T03:02:43.921Z,11.20
2022-09-04T03:05:01.249Z,11.18
2022-09-04T03:07:26.569Z,11.14
2022-09-04T03:09:55.650Z,11.15
2022-09-04T03:12:26.414Z,11.12
2022-09-04T03:14:46.813Z,11.07
2022-09-04T03:17:16.371Z,11.09
2022-09-04T03:19:35.556Z,11.08
2022-09-04T03:21:46.424Z,11.07
2022-09-04T03:24:11.323Z,11.02
2022-09-04T03:26:24.948Z,10.98
2022-09-04T03:29:06.159Z,10.91
2022-09-04T03:32:18.813Z,10.93
2022-09-04T03:34:37.547Z,10.91
2022-09-04T03:36:59.485Z,10.90
2022-09-04T03:39:27.975Z,10.89
2022-09-04T03:42:07.652Z,10.86
2022-09-04T03:44:28.392Z,10.82
2022-09-04T03:47:14.237Z,10.79
2022-09-04T03:49:31.206Z,10.78
2022-09-04T03:51:59.533Z,10.70
2022-09-04T03:54:29.484Z,10.78
2022-09-04T03:57:13.489Z,10.76
2022-09-04T03:59:44.768Z,10.75
2022-09-04T04:01:55.706Z,10.76
2022-09-04T04:04:35.315Z,10.70
2022-09-04T04:07:10.200Z,10.67
2022-09-04T04:09:18.907Z,10.67
2022-09-04T04:11:46.323Z,10.68
2022-09-04T04:14:25.601Z,10.63
2022-09-04T04:17:02.704Z,10.58
2022-09-04T04:19:42.352Z,10.59
2022-09-04T04:22:01.207Z,10.59
2022-09-04T04:24:19.454Z,10.57
2022-09-04T04:26:40.577Z,10.55
2022-09-04T04:29:07.069Z,10.59
2022-09-04T04:31:23.339Z,10.55
2022-09-04T04:33:50.815Z,10.50
2022-09-04T04:36:17.700Z,10.52
2022-09-04T04:38:39.755Z,10.57
2022-09-04T04:41:16.635Z,10.54
2022-09-04T04:43:48.827Z,10.63
2022-09-04T04:46:15.458Z,10.62
2022-09-04T04:48:29.295Z,10.60
2022-09-04T04:51:11.102Z,10.58
2022-09-04T04:53:37.947Z,10.60
2022-09-04T04:56:20.236Z,10.63
2022-09-04T04:58:32.254Z,10.65
2022-09-04T05:01:16.148Z,10.65
2022-09-04T05:03:32.413Z,10.67
2022-09-04T05:06:13.408Z,10.69
2022-09-04T05:08:58.813Z,10.71
2022-09-04T05:11:28.476Z,10.74
2022-09-04T05:13:36.484Z,10.76
2022-09-04T05:16:05.198Z,10.78
2022-09-04T05:18:26.161Z,10.83
2022-09-04T05:20:52.300Z,10.86
2022-09-04T05:23:03.936Z,10.93
2022-09-04T05:25:37.324Z,10.97
2022-09-04T05:28:08.601Z,10.97
2022-09-04T05:30:47.674Z,10.98
2022-09-04T05:33:04.563Z,11.02
2022-09-04T05:35:23.605Z,11.04
2022-09-04T05:38:02.353Z,11.13
2022-09-04T05:40:29.169Z,11.16
2022-09-04T05:42:52.758Z,11.19
2022-09-04T05:45:11.017Z,11.20
2022-09-04T05:47:39.917Z,11.24
2022-09-04T05:50:13.081Z,11.28
2022-09-04T05:52:45.125Z,11.31
2022-09-04T05:55:14.791Z,11.35
2022-09-04T05:57:47.590Z,11.40
2022-09-04T06:00:04.231Z,11.47
2022-09-04T06:02:46.891Z,11.48
2022-09-04T06:05:14.076Z,11.53
2022-09-04T06:08:00.371Z,11.57
2022-09-04T06:10:20.303Z,11.66
2022-09-04T06:12:44.740Z,11.71
2022-09-04T06:15:16.338Z,11.76
2022-09-04T06:18:07.745Z,11.79
2022-09-04T06:20:46.681Z,11.88
2022-09-04T06:23:06.565Z,11.95
2022-09-04T06:25:37.773Z,12.03
2022-09-04T06:28:18.243Z,12.05
2022-09-04T06:30:20.247Z,12.12
2022-09-04T06:32:51.827Z,12.21
2022-09-04T06:35:27.149Z,12.28
2022-09-04T06:38:01.708Z,12.38
2022-09-04T06:40:29.728Z,12.48
2022-09-04T06:42:52.637Z,12.55
2022-09-04T06:45:09.909Z,12.60
2022-09-04T06:47:51.560Z,12.67
2022-09-04T06:50:18.425Z,12.75
2022-09-04T06:52:33.975Z,12.87
2022-09-04T06:55:00.007Z,12.99
2022-09-04T06:57:46.760Z,13.06
2022-09-04T07:00:06.374Z,13.16
2022-09-04T07:02:35.611Z,13.33
2022-09-04T07:05:21.808Z,13.47
2022-09-04T07:07:52.632Z,13.59
2022-09-04T07:10:01.377Z,13.67
2022-09-04T07:12:39.383Z,13.76
2022-09-04T07:15:22.622Z,13.90
2022-09-04T07:17:37.001Z,13.99
2022-09-04T07:20:39.049Z,14.13
2022-09-04T07:22:54.481Z,14.24
2022-09-04T07:25:30.228Z,14.33
2022-09-04T07:28:07.097Z,14.48
2022-09-04T07:30:11.079Z,14.52
2022-09-04T07:32:44.543Z,14.70
2022-09-04T07:35:15.737Z,14.87
2022-09-04T07:37:50.161Z,14.98
2022-09-04T07:40:43.273Z,15.10
2022-09-04T07:43:09.216Z,15.17
2022-09-04T07:45:34.878Z,15.23
2022-09-04T07:47:46.258Z,15.33
2022-09-04T07:50:07.443Z,15.44
2022-09-04T07:52:25.961Z,15.57
2022-09-04T07:54:43.930Z,15.61
2022-09-04T07:57:25.712Z,15.72
2022-09-04T08:00:02.536Z,15.83
2022-09-04T08:02:56.691Z,15.94
2022-09-04T08:05:04.544Z,16.02
2022-09-04T08:07:14.046Z,16.11
2022-09-04T08:10:21.158Z,16.29
2022-09-04T08:12:45.334Z,16.42
2022-09-04T08:15:10.749Z,16.54
2022-09-04T08:17:42.060Z,16.73
2022-09-04T08:20:08.083Z,16.93
2022-09-04T08:22:13.608Z,17.02
2022-09-04T08:24:45.194Z,17.13
2022-09-04T08:27:09.444Z,17.33
2022-09-04T08:29:28.830Z,17.43
2022-09-04T08:32:04.551Z,17.51
2022-09-04T08:34:34.224Z,17.68
2022-09-04T08:36:51.858Z,17.80
2022-09-04T08:39:02.385Z,17.99
2022-09-04T08:41:29.895Z,18.10
2022-09-04T08:44:04.080Z,18.09
2022-09-04T08:47:01.958Z,18.32
2022-09-04T08:49:28.636Z,18.49
2022-09-04T08:51:59.473Z,18.71
2022-09-04T08:54:59.211Z,18.91
2022-09-04T08:57:41.189Z,19.00
2022-09-04T09:00:08.651Z,19.14
2022-09-04T09:02:50.087Z,19.38
2022-09-04T09:05:26.771Z,19.54
2022-09-04T09:07:42.104Z,19.68
2022-09-04T09:10:15.244Z,19.81
2022-09-04T09:12:42.246Z,20.12
2022-09-04T09:15:14.251Z,20.32
2022-09-04T09:17:39.234Z,20.54
2022-09-04T09:20:04.602Z,20.75
2022-09-04T09:22:20.603Z,20.88
2022-09-04T09:24:56.319Z,21.14
2022-09-04T09:27:51.932Z,21.38
2022-09-04T09:30:12.431Z,21.79
2022-09-04T09:32:50.448Z,22.38
2022-09-04T09:35:10.342Z,22.73
2022-09-04T09:37:54.026Z,23.15
2022-09-04T09:40:16.211Z,23.59
2022-09-04T09:42:43.536Z,23.88
2022-09-04T09:45:50.898Z,24.28
2022-09-04T09:48:14.347Z,24.88
2022-09-04T09:50:58.113Z,25.21
2022-09-04T09:53:05.980Z,25.26
2022-09-04T09:55:38.821Z,26.03
2022-09-04T09:57:57.146Z,26.77
2022-09-04T10:00:09.163Z,26.91
2022-09-04T10:02:35.189Z,27.59
2022-09-04T10:04:59.671Z,27.57
2022-09-04T10:07:41.965Z,27.94
2022-09-04T10:10:00.435Z,28.49
2022-09-04T10:12:19.023Z,28.40
2022-09-04T10:14:55.213Z,28.71
2022-09-04T10:17:24.013Z,29.54
2022-09-04T10:19:46.975Z,29.28
2022-09-04T10:22:18.575Z,29.55
2022-09-04T10:24:43.115Z,29.88
2022-09-04T10:27:09.310Z,30.09
2022-09-04T10:29:29.073Z,30.15
2022-09-04T10:32:03.634Z,30.89
2022-09-04T10:34:37.050Z,30.75
2022-09-04T10:37:01.209Z,31.11
2022-09-04T10:40:03.718Z,31.33
2022-09-04T10:42:51.419Z,31.81
2022-09-04T10:45:17.285Z,31.87
2022-09-04T10:47:45.544Z,31.84
2022-09-04T10:50:13.477Z,32.40
2022-09-04T10:52:36.519Z,32.54
2022-09-04T10:55:26.726Z,32.81
2022-09-04T10:57:43.590Z,32.98
2022-09-04T11:00:08.233Z,33.92
2022-09-04T11:02:34.182Z,34.38
2022-09-04T11:04:59.972Z,34.77
2022-09-04T11:07:25.802Z,34.62
2022-09-04T11:10:16.055Z,34.92
2022-09-04T11:12:51.986Z,35.04
2022-09-04T11:15:18.778Z,35.19
2022-09-04T11:17:50.825Z,34.51
2022-09-04T11:20:22.486Z,34.86
2022-09-04T11:22:57.832Z,34.72
2022-09-04T11:25:39.741Z,35.20
2022-09-04T11:28:30.808Z,35.11
2022-09-04T11:31:22.565Z,34.93
2022-09-04T11:33:42.628Z,34.68
2022-09-04T11:36:21.079Z,34.56
2022-09-04T11:38:43.845Z,35.17
2022-09-04T11:41:32.226Z,34.86
2022-09-04T11:44:34.630Z,34.91
2022-09-04T11:47:04.124Z,34.63
2022-09-04T11:49:20.935Z,35.22
2022-09-04T11:52:02.330Z,34.89
2022-09-04T11:54:38.087Z,34.73
2022-09-04T11:57:15.165Z,34.65
2022-09-04T11:59:34.634Z,34.65
2022-09-04T12:02:20.055Z,34.43
2022-09-04T12:04:43.602Z,34.41
2022-09-04T12:07:23.213Z,33.89
2022-09-04T12:10:02.241Z,33.15
2022-09-04T12:12:42.276Z,32.97
2022-09-04T12:15:07.539Z,32.96
2022-09-04T12:17:56.552Z,32.32
2022-09-04T12:20:18.046Z,32.11
2022-09-04T12:22:46.045Z,32.06
2022-09-04T12:25:05.660Z,31.45
2022-09-04T12:27:51.309Z,31.76
2022-09-04T12:30:23.796Z,31.77
2022-09-04T12:33:11.004Z,31.91
2022-09-04T12:35:44.007Z,32.00
2022-09-04T12:38:10.670Z,31.96
2022-09-04T12:41:06.197Z,31.86
2022-09-04T12:43:30.893Z,31.75
2022-09-04T12:46:04.391Z,32.05
2022-09-04T12:48:41.394Z,32.22
2022-09-04T12:51:16.753Z,32.66
2022-09-04T12:53:55.359Z,33.13
2022-09-04T12:56:12.709Z,33.26
2022-09-04T12:58:38.854Z,33.24
2022-09-04T13:01:15.415Z,32.73
2022-09-04T13:03:49.921Z,32.55
2022-09-04T13:06:24.052Z,32.87
2022-09-04T13:09:10.979Z,33.41
2022-09-04T13:11:34.772Z,33.96
2022-09-04T13:14:20.361Z,34.30
2022-09-04T13:16:45.275Z,34.65
2022-09-04T13:19:20.550Z,35.40
2022-09-04T13:22:07.664Z,34.89
2022-09-04T13:24:51.308Z,34.51
2022-09-04T13:27:15.875Z,33.90
2022-09-04T13:29:30.115Z,33.43
2022-09-04T13:32:45.417Z,33.48
2022-09-04T13:35:17.288Z,33.84
2022-09-04T13:37:45.301Z,33.89
2022-09-04T13:40:14.433Z,34.34
2022-09-04T13:42:57.627Z,34.42
2022-09-04T13:45:05.779Z,34.59
2022-09-04T13:47:26.000Z,34.73
2022-09-04T13:49:48.202Z,34.79
2022-09-04T13:52:29.514Z,35.10
2022-09-04T13:54:44.195Z,35.33
2022-09-04T13:57:16.752Z,34.98
2022-09-04T13:59:19.044Z,35.11
2022-09-04T14:01:25.705Z,34.75
2022-09-04T14:03:41.219Z,34.60
2022-09-04T14:05:43.261Z,33.98
2022-09-04T14:07:47.706Z,33.43
2022-09-04T14:09:49.853Z,33.73
2022-09-04T14:12:20.038Z,33.36
2022-09-04T14:15:09.766Z,33.17
2022-09-04T14:17:12.636Z,33.23
2022-09-04T14:19:32.091Z,32.93
2022-09-04T14:22:35.165Z,32.04
2022-09-04T14:24:56.363Z,31.84
2022-09-04T14:27:14.253Z,31.92
2022-09-04T14:29:37.505Z,31.56
2022-09-04T14:32:12.982Z,31.54
2022-09-04T14:34:57.257Z,31.35
2022-09-04T14:37:54.320Z,31.71
2022-09-04T14:40:03.099Z,31.56
2022-09-04T14:42:33.620Z,31.40
2022-09-04T14:45:15.114Z,31.27
2022-09-04T14:47:54.996Z,31.04
2022-09-04T14:49:57.055Z,30.78
2022-09-04T14:52:11.344Z,31.07
2022-09-04T14:54:31.515Z,31.53
2022-09-04T14:56:39.390Z,31.97
2022-09-04T14:59:02.605Z,31.82
2022-09-04T15:01:11.628Z,31.54
2022-09-04T15:03:17.297Z,31.73
2022-09-04T15:05:37.076Z,31.63
2022-09-04T15:07:41.946Z,31.73
2022-09-04T15:09:47.006Z,31.70
2022-09-04T15:12:04.335Z,31.76
2022-09-04T15:14:34.425Z,31.22
2022-09-04T15:16:46.781Z,30.86
2022-09-04T15:19:05.174Z,30.37
2022-09-04T15:22:00.322Z,30.71
2022-09-04T15:24:14.125Z,30.68
2022-09-04T15:26:37.648Z,30.61
2022-09-04T15:28:52.019Z,30.41
2022-09-04T15:31:16.741Z,30.12
2022-09-04T15:33:19.410Z,29.91
2022-09-04T15:35:32.791Z,29.85
2022-09-04T15:37:35.615Z,29.68
2022-09-04T15:40:02.665Z,29.54
2022-09-04T15:42:05.024Z,29.39
2022-09-04T15:44:31.589Z,28.95
2022-09-04T15:46:52.366Z,28.58
2022-09-04T15:49:27.422Z,28.78
2022-09-04T15:52:10.528Z,28.72
2022-09-04T15:54:32.421Z,28.51
2022-09-04T15:57:00.085Z,28.40
2022-09-04T15:59:20.423Z,28.26
2022-09-04T16:02:36.398Z,28.12
2022-09-04T16:05:03.843Z,27.85
2022-09-04T16:07:33.010Z,27.66
2022-09-04T16:09:43.376Z,27.49
2022-09-04T16:12:24.303Z,27.50
2022-09-04T16:14:50.070Z,27.45
2022-09-04T16:17:01.353Z,27.43
2022-09-04T16:19:27.820Z,27.16
2022-09-04T16:21:50.563Z,27.03
2022-09-04T16:23:52.637Z,26.96
2022-09-04T16:25:58.250Z,26.85
2022-09-04T16:28:08.204Z,26.80
2022-09-04T16:30:31.342Z,26.60
2022-09-04T16:32:35.222Z,26.35
2022-09-04T16:35:19.184Z,26.18
2022-09-04T16:37:42.578Z,26.04
2022-09-04T16:40:05.087Z,26.00
2022-09-04T16:42:17.854Z,25.91
2022-09-04T16:44:28.536Z,25.78
2022-09-04T16:46:32.506Z,25.63
2022-09-04T16:48:54.207Z,25.40
2022-09-04T16:51:39.467Z,25.20
2022-09-04T16:53:49.896Z,25.08
2022-09-04T16:56:07.422Z,24.90
2022-09-04T16:58:12.420Z,24.86
2022-09-04T17:00:14.874Z,24.79
2022-09-04T17:02:44.797Z,24.54
2022-09-04T17:05:34.918Z,24.18
2022-09-04T17:08:01.248Z,24.17
2022-09-04T17:10:36.741Z,24.01
2022-09-04T17:12:54.524Z,23.79
2022-09-04T17:15:28.713Z,23.72
2022-09-04T17:17:32.284Z,23.64
2022-09-04T17:19:34.472Z,23.53
2022-09-04T17:28:54.639Z,23.30
2022-09-04T17:29:13.985Z,23.20
2022-09-04T17:29:15.033Z,23.03
2022-09-04T17:30:40.311Z,22.87
2022-09-04T17:37:41.999Z,22.76
2022-09-04T17:40:40.467Z,22.65
2022-09-04T17:40:48.435Z,22.43
2022-09-04T17:41:40.063Z,22.21
2022-09-04T17:43:42.000Z,22.01
2022-09-04T17:45:59.776Z,21.92
2022-09-04T17:48:26.572Z,21.87
2022-09-04T17:50:28.657Z,21.79
2022-09-04T17:52:33.044Z,21.67
2022-09-04T17:54:41.451Z,21.60
2022-09-04T17:56:57.918Z,21.56
2022-09-04T17:59:09.248Z,21.48
2022-09-04T18:01:37.209Z,21.39
2022-09-04T18:04:21.518Z,21.30
2022-09-04T18:06:25.233Z,21.14
2022-09-04T18:08:39.620Z,20.95
2022-09-04T18:10:55.156Z,20.74
2022-09-04T18:13:38.802Z,20.58
2022-09-04T18:15:52.322Z,20.24
2022-09-04T18:18:17.216Z,20.19
2022-09-04T18:20:41.131Z,20.19
2022-09-04T18:23:05.466Z,20.10
2022-09-04T18:25:19.527Z,20.04
2022-09-04T18:28:11.298Z,19.95
2022-09-04T18:37:11.513Z,19.91
2022-09-04T18:37:17.428Z,19.64
2022-09-04T18:37:21.952Z,19.67
2022-09-04T18:38:41.626Z,19.64
2022-09-04T18:45:34.390Z,19.59
2022-09-04T18:50:25.280Z,19.42
2022-09-04T18:50:33.211Z,19.32
2022-09-04T18:50:33.449Z,19.39
2022-09-04T18:53:43.959Z,19.13
2022-09-04T18:56:05.654Z,18.97
2022-09-04T18:58:38.955Z,18.98
2022-09-04T19:00:53.170Z,18.79
2022-09-04T19:03:45.315Z,18.79
2022-09-04T19:05:47.644Z,18.76
2022-09-04T19:07:56.974Z,18.75
2022-09-04T19:10:12.254Z,18.68
2022-09-04T19:12:14.261Z,18.60
2022-09-04T19:14:19.515Z,18.51
2022-09-04T19:16:40.465Z,18.38
2022-09-04T19:18:50.796Z,18.37
2022-09-04T19:21:14.882Z,18.36
2022-09-04T19:23:33.525Z,18.41
2022-09-04T19:25:44.859Z,18.34
2022-09-04T19:28:13.838Z,18.23
2022-09-04T19:30:23.924Z,18.22
2022-09-04T19:32:30.500Z,18.12
2022-09-04T19:34:51.235Z,18.09
2022-09-04T19:36:57.282Z,18.08
2022-09-04T19:45:57.466Z,18.04
2022-09-04T19:46:01.829Z,18.03
2022-09-04T19:46:18.773Z,17.91
2022-09-04T19:48:08.769Z,17.88
2022-09-04T19:53:22.065Z,17.84
2022-09-04T19:53:29.614Z,17.73
2022-09-04T19:55:23.448Z,17.55
2022-09-04T19:58:01.345Z,17.59
2022-09-04T20:00:31.229Z,17.54
2022-09-04T20:02:32.142Z,17.52
2022-09-04T20:04:42.509Z,17.55
2022-09-04T20:06:48.341Z,17.52
2022-09-04T20:09:33.139Z,17.50
2022-09-04T20:11:46.414Z,17.47
2022-09-04T20:13:54.010Z,17.32
2022-09-04T20:16:20.231Z,17.26
2022-09-04T20:18:31.061Z,17.17
2022-09-04T20:21:05.528Z,17.10
2022-09-04T20:23:34.132Z,17.05
2022-09-04T20:25:55.913Z,17.08
2022-09-04T20:28:13.121Z,17.03
2022-09-04T20:30:25.035Z,16.99
2022-09-04T20:32:33.548Z,16.96
2022-09-04T20:34:48.506Z,16.92
2022-09-04T20:37:29.514Z,16.86
2022-09-04T20:39:41.810Z,16.81
2022-09-04T20:42:08.776Z,16.79
2022-09-04T20:46:44.192Z,16.76
2022-09-04T20:52:44.382Z,16.69
2022-09-04T20:52:49.130Z,16.45
2022-09-04T20:52:49.295Z,16.66
2022-09-04T20:55:37.739Z,16.43
2022-09-04T21:02:07.929Z,16.36
2022-09-04T21:03:07.980Z,16.21
2022-09-04T21:04:14.526Z,16.17
2022-09-04T21:06:31.908Z,16.10
2022-09-04T21:09:13.452Z,16.02
2022-09-04T21:11:41.187Z,16.02
2022-09-04T21:13:50.871Z,16.04
2022-09-04T21:16:11.617Z,16.02
2022-09-04T21:18:34.508Z,15.92
2022-09-04T21:21:09.715Z,15.84
2022-09-04T21:24:09.078Z,15.79
2022-09-04T21:26:30.080Z,15.81
2022-09-04T21:28:47.618Z,15.74
2022-09-04T21:31:28.424Z,15.71
2022-09-04T21:33:47.144Z,15.68
2022-09-04T21:36:25.276Z,15.67
2022-09-04T21:38:48.701Z,15.60
2022-09-04T21:41:39.715Z,15.41
2022-09-04T21:44:02.713Z,15.33
2022-09-04T21:46:13.094Z,15.30
2022-09-04T21:48:34.259Z,15.25
2022-09-04T21:51:28.247Z,15.11
2022-09-04T21:53:53.130Z,15.02
2022-09-04T22:02:26.549Z,14.99
2022-09-04T22:02:38.450Z,14.85
2022-09-04T22:02:46.275Z,14.93
2022-09-04T22:05:07.138Z,14.80
2022-09-04T22:11:41.908Z,14.80
2022-09-04T22:13:33.497Z,14.73
2022-09-04T22:13:47.858Z,14.70
2022-09-04T22:16:16.057Z,14.72
2022-09-04T22:18:29.741Z,14.72
2022-09-04T22:21:04.423Z,14.64
2022-09-04T22:23:49.806Z,14.60
2022-09-04T22:26:23.812Z,14.57
2022-09-04T22:28:52.331Z,14.56
2022-09-04T22:31:29.372Z,14.49
2022-09-04T22:34:16.197Z,14.49
2022-09-04T22:37:11.343Z,14.42
2022-09-04T22:39:31.353Z,14.40
2022-09-04T22:42:17.764Z,14.42
2022-09-04T22:44:31.286Z,14.36
2022-09-04T22:46:48.833Z,14.32
2022-09-04T22:49:21.112Z,14.30
2022-09-04T22:52:02.394Z,14.29
2022-09-04T22:54:18.052Z,14.28
2022-09-04T22:57:06.228Z,14.26
2022-09-04T22:59:38.661Z,14.26
2022-09-04T23:02:13.940Z,14.22
2022-09-04T23:04:22.513Z,14.19
2022-09-04T23:10:35.424Z,14.16
2022-09-04T23:13:47.863Z,14.15
2022-09-04T23:13:53.898Z,14.04
2022-09-04T23:15:35.957Z,14.03
2022-09-04T23:20:39.978Z,14.02
2022-09-04T23:26:34.274Z,13.98
2022-09-04T23:26:44.141Z,13.94
2022-09-04T23:27:28.136Z,13.83
2022-09-04T23:29:49.669Z,13.85
2022-09-04T23:32:16.711Z,13.85
2022-09-04T23:34:50.757Z,13.81
2022-09-04T23:37:25.901Z,13.71
2022-09-04T23:40:31.266Z,13.69
2022-09-04T23:42:43.764Z,13.70
2022-09-04T23:45:32.198Z,13.70
2022-09-04T23:48:20.084Z,13.69
2022-09-04T23:50:34.378Z,13.67
2022-09-04T23:53:42.848Z,13.59
2022-09-04T23:56:04.479Z,13.62
2022-09-04T23:59:00.210Z,13.65
